FMN weather

Four Corners Regional Airport
Farmington, New Mexico, United States

Public forecast

Using degrees Fahrenheit for public forecast. Weather courtesy of forecast.io.

METAR (pilot weather report)

Retrieved 2019/07/17 23:53 UTC (31 minutes ago):

KFMN 172353Z 28017G27KT 10SM CLR 34/00 A3005 RMK AO2 PK WND 27027/2349 SLP099 T03440000 10361 20311 56017

TAF (pilot weather forecast)

Forecast is more than 12 hours old.

Retrieved 2019/07/17 00:24 UTC (1 day ago):

TAF KFMN 172321Z 1800/1824 28015G25KT P6SM SKC FM180200 31006KT P6SM FEW130 FM180600 06005KT P6SM SKC FM181700 28012G20KT P6SM SKC